This is the latest recevied weather packets stored in our database for station/object K3RUP-1. If no packets are shown the sender has not sent any weather packets the latest 10 day(s).
| Time | Temp. | Humidity | Pressure | Rain* | Wind** | Luminosity | Snow |
|---|---|---|---|---|---|---|---|
| 1788009103 | 21.67° C | 68% | 1023.4 hPa | 0 mm | - | 60 W/m² | - |
| 1788008798 | 21.67° C | 68% | 1023.2 hPa | 0 mm | - | 149 W/m² | - |
| 1788008497 | 21.67° C | 68% | 1023.4 hPa | 0 mm | - | 58 W/m² | - |
| 1788008195 | 21.67° C | 69% | 1023.1 hPa | 0 mm | - | 111 W/m² | - |
| 1788007892 | 21.67° C | 69% | 1023.4 hPa | 0 mm | - | 49 W/m² | - |
| 1788007587 | 21.67° C | 70% | 1023 hPa | 0 mm | - | 43 W/m² | - |
| 1788007287 | 21.67° C | 70% | 1023.1 hPa | 0 mm | - | 57 W/m² | - |
| 1788006981 | 21.11° C | 71% | 1023.2 hPa | 0 mm | - | 53 W/m² | - |
| 1788006675 | 21.11° C | 74% | 1023.2 hPa | 0 mm | - | 46 W/m² | - |
| 1788006370 | 21.11° C | 73% | 1023.1 hPa | 0 mm | - | 37 W/m² | - |
| 1788006069 | 21.11° C | 73% | 1023 hPa | 0 mm | - | 34 W/m² | - |
| 1788005768 | 21.11° C | 73% | 1022.9 hPa | 0 mm | - | 34 W/m² | - |
| 1788005463 | 21.11° C | 75% | 1022.9 hPa | 0 mm | - | 30 W/m² | - |
| 1788005163 | 20.56° C | 74% | 1022.8 hPa | 0 mm | - | 30 W/m² | - |
| 1788004857 | 20.56° C | 75% | 1022.9 hPa | 0 mm | - | 28 W/m² | - |
| 1788004556 | 20.56° C | 76% | 1022.7 hPa | 0 mm | - | 26 W/m² | - |
| 1788004251 | 20.56° C | 79% | 1022.9 hPa | 0 mm | - | 26 W/m² | - |
| 1788003950 | 20° C | 77% | 1022.7 hPa | 0 mm | - | 25 W/m² | - |
| 1788003644 | 20° C | 82% | 1022.6 hPa | 0 mm | - | 23 W/m² | - |
| 1788003344 | 20° C | 83% | 1022.9 hPa | 0 mm | - | 21 W/m² | - |
| 1788003039 | 20.56° C | 82% | 1022.8 hPa | 0 mm | - | 19 W/m² | - |
| 1788002738 | 20.56° C | 83% | 1022.7 hPa | 0 mm | - | 18 W/m² | - |
| 1788002434 | 20° C | 82% | 1022.6 hPa | 0 mm | - | 16 W/m² | - |
| 1788002139 | 20° C | 83% | 1022.7 hPa | 0 mm | - | 14 W/m² | - |
| 1788001824 | 20.56° C | 82% | 1022.7 hPa | 0 mm | - | 13 W/m² | - |
* Rain latest hour (hover to see other rain measurements)
** Current wind speed in m/s (hover to see current wind gust speed)